createdAt,value
2023-03-17T00:01:40.301Z,60.78
2023-03-17T00:06:36.462Z,60.99
2023-03-17T00:11:37.748Z,61.02
2023-03-17T00:16:31.165Z,61.12
2023-03-17T00:21:29.946Z,61.49
2023-03-17T00:26:21.884Z,60.76
2023-03-17T00:31:30.326Z,60.98
2023-03-17T00:36:28.955Z,60.88
2023-03-17T00:41:21.377Z,61.08
2023-03-17T00:46:17.651Z,61.30
2023-03-17T00:51:09.217Z,61.54
2023-03-17T00:56:03.185Z,61.35
2023-03-17T01:00:56.923Z,61.46
2023-03-17T01:05:48.453Z,61.81
2023-03-17T01:10:41.194Z,62.00
2023-03-17T01:15:36.365Z,62.01
2023-03-17T01:20:34.890Z,61.96
2023-03-17T01:25:28.142Z,62.09
2023-03-17T01:30:31.878Z,62.38
2023-03-17T01:35:26.348Z,62.15
2023-03-17T01:40:25.881Z,62.13
2023-03-17T01:45:46.775Z,61.85
2023-03-17T01:50:43.148Z,62.57
2023-03-17T01:55:40.499Z,62.43
2023-03-17T02:00:32.686Z,62.12
2023-03-17T02:05:27.518Z,62.53
2023-03-17T02:10:23.372Z,62.39
2023-03-17T02:15:17.373Z,62.73
2023-03-17T02:20:32.695Z,62.37
2023-03-17T02:25:31.158Z,62.28
2023-03-17T02:30:28.980Z,62.36
2023-03-17T02:35:21.373Z,62.28
2023-03-17T02:40:17.072Z,62.40
2023-03-17T02:45:15.697Z,62.42
2023-03-17T02:50:14.490Z,62.41
2023-03-17T02:55:11.809Z,62.65
2023-03-17T03:00:03.599Z,62.37
2023-03-17T03:04:58.971Z,62.57
2023-03-17T03:09:52.199Z,62.20
2023-03-17T03:14:43.492Z,62.20
2023-03-17T03:19:35.096Z,62.09
2023-03-17T03:24:38.849Z,62.41
2023-03-17T03:29:43.049Z,62.28
2023-03-17T03:34:46.027Z,63.02
2023-03-17T03:39:43.802Z,63.14
2023-03-17T03:44:34.295Z,62.88
2023-03-17T03:49:27.156Z,62.85
2023-03-17T03:54:17.068Z,62.52
2023-03-17T03:59:15.722Z,62.34
2023-03-17T04:04:17.160Z,62.80
2023-03-17T04:09:14.657Z,62.18
2023-03-17T04:14:10.286Z,62.47
2023-03-17T04:19:39.386Z,62.05
2023-03-17T04:24:37.881Z,62.26
2023-03-17T04:29:34.608Z,62.15
2023-03-17T04:34:39.856Z,62.14
2023-03-17T04:39:33.457Z,61.88
2023-03-17T04:44:25.262Z,62.11
2023-03-17T04:49:20.698Z,61.98
2023-03-17T04:54:19.497Z,61.92
2023-03-17T04:59:14.552Z,61.81
2023-03-17T05:04:05.764Z,62.06
2023-03-17T05:08:58.707Z,62.11
2023-03-17T05:14:00.453Z,62.35
2023-03-17T05:18:57.749Z,62.47
2023-03-17T05:23:58.464Z,62.47
2023-03-17T05:28:50.409Z,62.83
2023-03-17T05:33:48.361Z,62.69
2023-03-17T05:38:50.885Z,62.80
2023-03-17T05:43:47.081Z,62.70
2023-03-17T05:48:37.987Z,63.22
2023-03-17T05:53:37.118Z,63.38
2023-03-17T05:58:31.230Z,63.52
2023-03-17T06:03:24.116Z,63.44
2023-03-17T06:08:16.811Z,63.94
2023-03-17T06:13:11.505Z,64.04
2023-03-17T06:18:13.260Z,64.46
2023-03-17T06:23:11.956Z,64.74
2023-03-17T06:28:35.486Z,64.88
2023-03-17T06:33:26.560Z,64.06
2023-03-17T06:38:19.813Z,63.89
2023-03-17T06:43:17.601Z,64.15
2023-03-17T06:48:09.102Z,64.52
2023-03-17T06:53:07.646Z,65.09
2023-03-17T06:58:07.476Z,64.43
2023-03-17T07:03:05.285Z,63.58
2023-03-17T07:07:59.585Z,63.82
2023-03-17T07:12:49.638Z,63.54
2023-03-17T07:17:39.810Z,63.05
2023-03-17T07:22:33.411Z,63.12
2023-03-17T07:27:50.530Z,63.10
2023-03-17T07:32:44.115Z,63.52
2023-03-17T07:37:47.276Z,64.15
2023-03-17T07:42:42.702Z,63.96
2023-03-17T07:47:32.907Z,63.06
2023-03-17T07:52:23.933Z,63.16
2023-03-17T07:57:17.216Z,63.56
2023-03-17T08:02:13.507Z,63.43
2023-03-17T08:07:07.458Z,63.35
2023-03-17T08:12:02.158Z,63.50
2023-03-17T08:17:05.405Z,63.90
2023-03-17T08:22:01.327Z,62.90
2023-03-17T08:26:52.538Z,63.32
2023-03-17T08:31:46.898Z,62.13
2023-03-17T08:36:46.076Z,61.61
2023-03-17T08:41:43.621Z,60.56
2023-03-17T08:46:36.208Z,59.96
2023-03-17T08:51:31.120Z,59.72
2023-03-17T08:56:38.090Z,59.36
2023-03-17T09:01:33.024Z,59.50
2023-03-17T09:06:24.605Z,57.72
2023-03-17T09:11:20.160Z,56.98
2023-03-17T09:16:13.773Z,57.42
2023-03-17T09:21:11.043Z,56.72
2023-03-17T09:26:07.937Z,56.07
2023-03-17T09:31:11.708Z,53.53
2023-03-17T09:36:16.917Z,51.89
2023-03-17T09:41:26.303Z,52.86
2023-03-17T09:46:33.498Z,52.85
2023-03-17T09:51:34.487Z,52.66
2023-03-17T09:56:30.134Z,52.53
2023-03-17T10:01:28.931Z,52.39
2023-03-17T10:06:44.187Z,53.11
2023-03-17T10:11:46.392Z,53.56
2023-03-17T10:16:57.698Z,52.78
2023-03-17T10:22:04.114Z,53.51
2023-03-17T10:26:57.961Z,53.42
2023-03-17T10:31:50.443Z,53.56
2023-03-17T10:37:00.050Z,53.56
2023-03-17T10:42:04.445Z,53.79
2023-03-17T10:47:01.378Z,54.03
2023-03-17T10:51:58.938Z,53.80
2023-03-17T10:56:55.287Z,54.13
2023-03-17T11:01:56.895Z,54.63
2023-03-17T11:06:55.407Z,53.70
2023-03-17T11:11:52.683Z,54.43
2023-03-17T11:16:55.162Z,53.77
2023-03-17T11:22:05.417Z,53.13
2023-03-17T11:27:03.531Z,53.24
2023-03-17T11:32:13.516Z,53.30
2023-03-17T11:37:17.643Z,52.66
2023-03-17T11:42:18.462Z,52.47
2023-03-17T11:47:20.261Z,52.69
2023-03-17T11:52:28.893Z,52.58
2023-03-17T11:57:25.658Z,52.82
2023-03-17T12:02:24.909Z,52.72
2023-03-17T12:07:27.512Z,52.81
2023-03-17T12:12:31.941Z,53.35
2023-03-17T12:17:38.663Z,53.95
2023-03-17T12:22:42.954Z,53.35
2023-03-17T12:28:09.824Z,53.42
2023-03-17T12:33:17.800Z,54.00
2023-03-17T12:38:24.961Z,53.61
2023-03-17T12:44:01.143Z,53.72
2023-03-17T12:49:25.102Z,54.24
2023-03-17T12:54:30.287Z,53.53
2023-03-17T12:59:32.602Z,53.33
2023-03-17T13:04:29.418Z,53.36
2023-03-17T13:10:25.801Z,52.62
2023-03-17T13:15:34.109Z,51.94
2023-03-17T13:20:44.373Z,51.79
2023-03-17T13:25:55.479Z,51.47
2023-03-17T13:31:02.689Z,52.47
2023-03-17T13:36:39.131Z,51.98
2023-03-17T13:42:17.685Z,50.45
2023-03-17T13:47:28.704Z,49.67
2023-03-17T13:52:25.189Z,50.83
2023-03-17T13:57:35.281Z,49.49
2023-03-17T14:02:29.622Z,49.77
2023-03-17T14:07:26.890Z,50.17
2023-03-17T14:12:29.370Z,49.15
2023-03-17T14:17:45.856Z,50.17
2023-03-17T14:22:45.479Z,49.15
2023-03-17T14:27:41.992Z,48.56
2023-03-17T14:32:36.565Z,48.42
2023-03-17T14:37:31.438Z,48.75
2023-03-17T14:42:32.047Z,48.16
2023-03-17T14:47:35.984Z,47.21
2023-03-17T14:52:44.496Z,47.79
2023-03-17T14:57:42.149Z,47.23
2023-03-17T15:08:29.618Z,48.03
2023-03-17T15:13:19.900Z,48.46
2023-03-17T15:18:18.564Z,50.05
2023-03-17T15:23:24.162Z,49.76
2023-03-17T15:28:31.561Z,50.28
2023-03-17T15:33:25.939Z,51.18
2023-03-17T15:38:19.466Z,51.47
2023-03-17T15:43:09.693Z,51.61
2023-03-17T15:48:00.380Z,51.83
2023-03-17T15:53:00.219Z,51.69
2023-03-17T15:57:55.659Z,52.64
2023-03-17T16:02:54.243Z,53.29
2023-03-17T16:07:45.131Z,52.97
2023-03-17T16:12:41.687Z,53.69
2023-03-17T16:17:41.951Z,54.31
2023-03-17T16:22:44.669Z,54.39
2023-03-17T16:27:37.028Z,53.38
2023-03-17T16:32:28.685Z,52.37
2023-03-17T16:37:21.799Z,52.45
2023-03-17T16:42:25.754Z,53.63
2023-03-17T16:47:20.646Z,53.04
2023-03-17T16:52:13.326Z,54.73
2023-03-17T16:57:09.136Z,55.90
2023-03-17T17:02:19.058Z,55.16
2023-03-17T17:07:23.029Z,56.22
2023-03-17T17:12:19.587Z,56.71
2023-03-17T17:17:14.100Z,57.60
2023-03-17T17:22:10.189Z,57.43
2023-03-17T17:27:02.843Z,57.17
2023-03-17T17:31:59.140Z,57.50
2023-03-17T17:36:50.487Z,59.13
2023-03-17T17:41:40.683Z,59.12
2023-03-17T17:46:37.986Z,58.89
2023-03-17T17:51:37.983Z,58.72
2023-03-17T17:56:47.648Z,56.80
2023-03-17T18:01:44.083Z,55.37
2023-03-17T18:06:37.111Z,54.90
2023-03-17T18:11:27.233Z,55.08
2023-03-17T18:16:20.437Z,55.05
2023-03-17T18:21:11.473Z,54.84
2023-03-17T18:26:07.217Z,55.24
2023-03-17T18:31:10.876Z,55.69
2023-03-17T18:36:10.436Z,54.55
2023-03-17T18:41:15.607Z,55.84
2023-03-17T18:46:08.330Z,54.73
2023-03-17T18:51:02.943Z,54.21
2023-03-17T18:55:53.249Z,53.95
2023-03-17T19:00:48.015Z,54.16
2023-03-17T19:05:45.023Z,54.78
2023-03-17T19:10:36.174Z,54.80
2023-03-17T19:15:27.449Z,55.09
2023-03-17T19:20:26.591Z,55.86
2023-03-17T19:25:27.589Z,55.83
2023-03-17T19:30:23.022Z,56.20
2023-03-17T19:35:12.712Z,57.08
2023-03-17T19:40:11.296Z,56.70
2023-03-17T19:45:11.051Z,57.35
2023-03-17T19:50:04.482Z,58.33
2023-03-17T19:54:59.456Z,58.81
2023-03-17T19:59:56.567Z,56.96
2023-03-17T20:04:50.194Z,57.37
2023-03-17T20:09:42.395Z,57.50
2023-03-17T20:14:32.381Z,58.46
2023-03-17T20:19:27.910Z,58.52
2023-03-17T20:24:20.513Z,58.71
2023-03-17T20:29:24.922Z,59.18
2023-03-17T20:34:20.427Z,59.40
2023-03-17T20:39:21.438Z,59.70
2023-03-17T20:44:18.234Z,60.07
2023-03-17T20:49:10.621Z,60.41
2023-03-17T20:54:02.737Z,60.83
2023-03-17T20:59:07.488Z,61.60
2023-03-17T21:04:01.302Z,61.51
2023-03-17T21:08:58.341Z,62.80
2023-03-17T21:13:51.197Z,62.08
2023-03-17T21:18:55.318Z,63.52
2023-03-17T21:23:47.551Z,63.63
2023-03-17T21:28:41.315Z,63.64
2023-03-17T21:33:34.972Z,64.12
2023-03-17T21:38:29.921Z,65.29
2023-03-17T21:43:29.254Z,65.31
2023-03-17T21:48:22.912Z,74.96
2023-03-17T21:53:17.768Z,76.26
2023-03-17T21:58:16.262Z,76.05
2023-03-17T22:03:17.788Z,76.42
2023-03-17T22:08:14.732Z,77.94
2023-03-17T22:13:06.373Z,78.33
2023-03-17T22:18:03.278Z,78.61
2023-03-17T22:22:54.461Z,78.95
2023-03-17T22:27:48.692Z,79.36
2023-03-17T22:32:44.160Z,80.33
2023-03-17T22:37:42.481Z,80.71
2023-03-17T22:42:40.014Z,81.04
2023-03-17T22:47:30.564Z,80.65
2023-03-17T22:52:22.140Z,81.30
2023-03-17T22:57:26.291Z,82.08
2023-03-17T23:02:18.626Z,81.73
2023-03-17T23:07:18.713Z,81.59
2023-03-17T23:12:16.124Z,81.59
2023-03-17T23:17:10.981Z,81.75
2023-03-17T23:22:02.302Z,82.14
2023-03-17T23:26:54.760Z,81.88
2023-03-17T23:31:48.261Z,82.65
2023-03-17T23:36:46.383Z,83.03
2023-03-17T23:41:39.340Z,83.43
2023-03-17T23:46:32.103Z,85.03
2023-03-17T23:51:28.290Z,85.30
2023-03-17T23:56:27.715Z,86.27
